sensor_id;sensor_type;location;lat;lon;timestamp;temperature;humidity
11848;DHT22;5983;49.966;8.052;2023-12-22T00:01:11;6.40;99.90
11848;DHT22;5983;49.966;8.052;2023-12-22T00:03:40;6.40;99.90
11848;DHT22;5983;49.966;8.052;2023-12-22T00:06:07;6.40;99.90
11848;DHT22;5983;49.966;8.052;2023-12-22T00:08:34;6.40;99.90
11848;DHT22;5983;49.966;8.052;2023-12-22T00:11:01;6.40;99.90
11848;DHT22;5983;49.966;8.052;2023-12-22T00:13:27;6.40;99.90
11848;DHT22;5983;49.966;8.052;2023-12-22T00:15:54;6.40;99.90
11848;DHT22;5983;49.966;8.052;2023-12-22T00:18:22;6.30;99.90
11848;DHT22;5983;49.966;8.052;2023-12-22T00:20:49;6.30;99.90
11848;DHT22;5983;49.966;8.052;2023-12-22T00:23:15;6.20;99.90
11848;DHT22;5983;49.966;8.052;2023-12-22T00:25:42;6.10;99.90
11848;DHT22;5983;49.966;8.052;2023-12-22T00:28:09;6.10;99.90
11848;DHT22;5983;49.966;8.052;2023-12-22T00:30:36;6.00;99.90
11848;DHT22;5983;49.966;8.052;2023-12-22T00:33:03;6.00;99.90
11848;DHT22;5983;49.966;8.052;2023-12-22T00:35:31;5.90;99.90
11848;DHT22;5983;49.966;8.052;2023-12-22T00:37:58;5.80;99.90
11848;DHT22;5983;49.966;8.052;2023-12-22T00:40:25;5.80;99.90
11848;DHT22;5983;49.966;8.052;2023-12-22T00:42:52;5.80;99.90
11848;DHT22;5983;49.966;8.052;2023-12-22T00:45:18;5.90;99.90
11848;DHT22;5983;49.966;8.052;2023-12-22T00:47:45;5.90;99.90
11848;DHT22;5983;49.966;8.052;2023-12-22T00:50:12;5.90;99.90
11848;DHT22;5983;49.966;8.052;2023-12-22T00:52:40;6.00;99.90
11848;DHT22;5983;49.966;8.052;2023-12-22T00:55:06;6.00;99.90
11848;DHT22;5983;49.966;8.052;2023-12-22T00:57:33;6.00;99.90
11848;DHT22;5983;49.966;8.052;2023-12-22T01:00:00;6.10;99.90
11848;DHT22;5983;49.966;8.052;2023-12-22T01:02:26;6.10;99.90
11848;DHT22;5983;49.966;8.052;2023-12-22T01:04:53;6.20;99.90
11848;DHT22;5983;49.966;8.052;2023-12-22T01:07:20;6.20;99.90
11848;DHT22;5983;49.966;8.052;2023-12-22T01:09:48;6.20;99.90
11848;DHT22;5983;49.966;8.052;2023-12-22T01:12:14;6.20;99.90
11848;DHT22;5983;49.966;8.052;2023-12-22T01:14:41;6.20;99.90
11848;DHT22;5983;49.966;8.052;2023-12-22T01:17:10;6.20;99.90
11848;DHT22;5983;49.966;8.052;2023-12-22T01:19:37;6.20;99.90
11848;DHT22;5983;49.966;8.052;2023-12-22T01:22:03;6.10;99.90
11848;DHT22;5983;49.966;8.052;2023-12-22T01:24:30;6.10;99.90
11848;DHT22;5983;49.966;8.052;2023-12-22T01:26:58;6.00;99.90
11848;DHT22;5983;49.966;8.052;2023-12-22T01:29:25;6.10;99.90
11848;DHT22;5983;49.966;8.052;2023-12-22T01:31:52;6.00;99.90
11848;DHT22;5983;49.966;8.052;2023-12-22T01:34:19;6.10;99.90
11848;DHT22;5983;49.966;8.052;2023-12-22T01:36:45;6.10;99.90
11848;DHT22;5983;49.966;8.052;2023-12-22T01:39:12;6.20;99.90
11848;DHT22;5983;49.966;8.052;2023-12-22T01:41:39;6.20;99.90
11848;DHT22;5983;49.966;8.052;2023-12-22T01:44:08;6.30;99.90
11848;DHT22;5983;49.966;8.052;2023-12-22T01:46:35;6.40;99.90
11848;DHT22;5983;49.966;8.052;2023-12-22T01:49:02;6.40;99.90
11848;DHT22;5983;49.966;8.052;2023-12-22T01:51:30;6.40;99.90
11848;DHT22;5983;49.966;8.052;2023-12-22T01:53:59;6.50;99.90
11848;DHT22;5983;49.966;8.052;2023-12-22T01:56:26;6.50;99.90
11848;DHT22;5983;49.966;8.052;2023-12-22T01:58:55;6.50;99.90
11848;DHT22;5983;49.966;8.052;2023-12-22T02:01:26;6.50;99.90
11848;DHT22;5983;49.966;8.052;2023-12-22T02:03:54;6.50;99.90
11848;DHT22;5983;49.966;8.052;2023-12-22T02:06:21;6.50;99.90
11848;DHT22;5983;49.966;8.052;2023-12-22T02:08:48;6.50;99.90
11848;DHT22;5983;49.966;8.052;2023-12-22T02:11:15;6.60;99.90
11848;DHT22;5983;49.966;8.052;2023-12-22T02:13:42;6.60;99.90
11848;DHT22;5983;49.966;8.052;2023-12-22T02:16:11;6.60;99.90
11848;DHT22;5983;49.966;8.052;2023-12-22T02:18:46;6.70;99.90
11848;DHT22;5983;49.966;8.052;2023-12-22T02:21:14;6.70;99.90
11848;DHT22;5983;49.966;8.052;2023-12-22T02:23:42;6.70;99.90
11848;DHT22;5983;49.966;8.052;2023-12-22T02:26:10;6.70;99.90
11848;DHT22;5983;49.966;8.052;2023-12-22T02:28:43;6.70;99.90
11848;DHT22;5983;49.966;8.052;2023-12-22T02:31:13;6.70;99.90
11848;DHT22;5983;49.966;8.052;2023-12-22T02:33:43;6.70;99.90
11848;DHT22;5983;49.966;8.052;2023-12-22T02:36:12;6.70;99.90
11848;DHT22;5983;49.966;8.052;2023-12-22T02:38:42;6.70;99.90
11848;DHT22;5983;49.966;8.052;2023-12-22T02:41:10;6.70;99.90
11848;DHT22;5983;49.966;8.052;2023-12-22T02:43:38;6.70;99.90
11848;DHT22;5983;49.966;8.052;2023-12-22T02:46:04;6.70;99.90
11848;DHT22;5983;49.966;8.052;2023-12-22T02:48:31;6.70;99.90
11848;DHT22;5983;49.966;8.052;2023-12-22T02:53:35;6.80;99.90
11848;DHT22;5983;49.966;8.052;2023-12-22T02:56:03;6.80;99.90
11848;DHT22;5983;49.966;8.052;2023-12-22T02:58:31;6.80;99.90
11848;DHT22;5983;49.966;8.052;2023-12-22T03:00:57;6.80;99.90
11848;DHT22;5983;49.966;8.052;2023-12-22T03:03:24;6.80;99.90
11848;DHT22;5983;49.966;8.052;2023-12-22T03:05:51;6.80;99.90
11848;DHT22;5983;49.966;8.052;2023-12-22T03:08:18;6.70;99.90
11848;DHT22;5983;49.966;8.052;2023-12-22T03:10:44;6.70;99.90
11848;DHT22;5983;49.966;8.052;2023-12-22T03:13:12;6.70;99.90
11848;DHT22;5983;49.966;8.052;2023-12-22T03:15:39;6.70;99.90
11848;DHT22;5983;49.966;8.052;2023-12-22T03:18:06;6.70;99.90
11848;DHT22;5983;49.966;8.052;2023-12-22T03:20:33;6.70;99.90
11848;DHT22;5983;49.966;8.052;2023-12-22T03:22:59;6.80;99.90
11848;DHT22;5983;49.966;8.052;2023-12-22T03:25:26;6.80;99.90
11848;DHT22;5983;49.966;8.052;2023-12-22T03:27:53;6.80;99.90
11848;DHT22;5983;49.966;8.052;2023-12-22T03:30:21;6.80;99.90
11848;DHT22;5983;49.966;8.052;2023-12-22T03:32:47;6.80;99.90
11848;DHT22;5983;49.966;8.052;2023-12-22T03:35:13;6.80;99.90
11848;DHT22;5983;49.966;8.052;2023-12-22T03:37:40;6.70;99.90
11848;DHT22;5983;49.966;8.052;2023-12-22T03:40:07;6.70;99.90
11848;DHT22;5983;49.966;8.052;2023-12-22T03:42:36;6.70;99.90
11848;DHT22;5983;49.966;8.052;2023-12-22T03:45:02;6.70;99.90
11848;DHT22;5983;49.966;8.052;2023-12-22T03:47:31;6.70;99.90
11848;DHT22;5983;49.966;8.052;2023-12-22T03:49:58;6.60;99.90
11848;DHT22;5983;49.966;8.052;2023-12-22T03:52:25;6.60;99.90
11848;DHT22;5983;49.966;8.052;2023-12-22T03:54:52;6.50;99.90
11848;DHT22;5983;49.966;8.052;2023-12-22T03:57:18;6.50;99.90
11848;DHT22;5983;49.966;8.052;2023-12-22T03:59:45;6.50;99.90
11848;DHT22;5983;49.966;8.052;2023-12-22T04:02:12;6.40;99.90
11848;DHT22;5983;49.966;8.052;2023-12-22T04:04:40;6.30;99.90
11848;DHT22;5983;49.966;8.052;2023-12-22T04:07:07;6.30;99.90
11848;DHT22;5983;49.966;8.052;2023-12-22T04:09:33;6.20;99.90
11848;DHT22;5983;49.966;8.052;2023-12-22T04:12:03;6.10;99.90
11848;DHT22;5983;49.966;8.052;2023-12-22T04:14:30;6.10;99.90
11848;DHT22;5983;49.966;8.052;2023-12-22T04:16:56;6.10;99.90
11848;DHT22;5983;49.966;8.052;2023-12-22T04:19:23;6.10;99.90
11848;DHT22;5983;49.966;8.052;2023-12-22T04:21:51;6.10;99.90
11848;DHT22;5983;49.966;8.052;2023-12-22T04:24:18;6.10;99.90
11848;DHT22;5983;49.966;8.052;2023-12-22T04:26:45;6.20;99.90
11848;DHT22;5983;49.966;8.052;2023-12-22T04:29:11;6.20;99.90
11848;DHT22;5983;49.966;8.052;2023-12-22T04:31:38;6.20;99.90
11848;DHT22;5983;49.966;8.052;2023-12-22T04:34:05;6.30;99.90
11848;DHT22;5983;49.966;8.052;2023-12-22T04:36:32;6.30;99.90
11848;DHT22;5983;49.966;8.052;2023-12-22T04:39:00;6.40;99.90
11848;DHT22;5983;49.966;8.052;2023-12-22T04:41:27;6.50;99.90
11848;DHT22;5983;49.966;8.052;2023-12-22T04:43:53;6.50;99.90
11848;DHT22;5983;49.966;8.052;2023-12-22T04:46:20;6.60;99.90
11848;DHT22;5983;49.966;8.052;2023-12-22T04:48:47;6.60;99.90
11848;DHT22;5983;49.966;8.052;2023-12-22T04:51:14;6.60;99.90
11848;DHT22;5983;49.966;8.052;2023-12-22T04:53:41;6.70;99.90
11848;DHT22;5983;49.966;8.052;2023-12-22T04:56:09;6.70;99.90
11848;DHT22;5983;49.966;8.052;2023-12-22T04:58:35;6.70;99.90
11848;DHT22;5983;49.966;8.052;2023-12-22T05:01:02;6.70;99.90
11848;DHT22;5983;49.966;8.052;2023-12-22T05:03:29;6.70;99.90
11848;DHT22;5983;49.966;8.052;2023-12-22T05:05:56;6.60;99.90
11848;DHT22;5983;49.966;8.052;2023-12-22T05:08:23;6.60;99.90
11848;DHT22;5983;49.966;8.052;2023-12-22T05:10:50;6.60;99.90
11848;DHT22;5983;49.966;8.052;2023-12-22T05:13:18;6.50;99.90
11848;DHT22;5983;49.966;8.052;2023-12-22T05:15:45;6.40;99.90
11848;DHT22;5983;49.966;8.052;2023-12-22T05:18:11;6.40;99.90
11848;DHT22;5983;49.966;8.052;2023-12-22T05:20:38;6.40;99.90
11848;DHT22;5983;49.966;8.052;2023-12-22T05:23:05;6.30;99.90
11848;DHT22;5983;49.966;8.052;2023-12-22T05:25:31;6.30;99.90
11848;DHT22;5983;49.966;8.052;2023-12-22T05:27:58;6.30;99.90
11848;DHT22;5983;49.966;8.052;2023-12-22T05:30:26;6.20;99.90
11848;DHT22;5983;49.966;8.052;2023-12-22T05:32:53;6.20;99.90
11848;DHT22;5983;49.966;8.052;2023-12-22T05:35:20;6.20;99.90
11848;DHT22;5983;49.966;8.052;2023-12-22T05:37:47;6.20;99.90
11848;DHT22;5983;49.966;8.052;2023-12-22T05:40:14;6.20;99.90
11848;DHT22;5983;49.966;8.052;2023-12-22T05:42:41;6.20;99.90
11848;DHT22;5983;49.966;8.052;2023-12-22T05:45:08;6.30;99.90
11848;DHT22;5983;49.966;8.052;2023-12-22T05:47:37;6.30;99.90
11848;DHT22;5983;49.966;8.052;2023-12-22T05:50:04;6.40;99.90
11848;DHT22;5983;49.966;8.052;2023-12-22T05:52:32;6.40;99.90
11848;DHT22;5983;49.966;8.052;2023-12-22T05:54:59;6.50;99.90
11848;DHT22;5983;49.966;8.052;2023-12-22T05:57:25;6.50;99.90
11848;DHT22;5983;49.966;8.052;2023-12-22T05:59:52;6.60;99.90
11848;DHT22;5983;49.966;8.052;2023-12-22T06:02:19;6.60;99.90
11848;DHT22;5983;49.966;8.052;2023-12-22T06:04:47;6.70;99.90
11848;DHT22;5983;49.966;8.052;2023-12-22T06:07:14;6.70;99.90
11848;DHT22;5983;49.966;8.052;2023-12-22T06:09:41;6.80;99.90
11848;DHT22;5983;49.966;8.052;2023-12-22T06:12:07;6.80;99.90
11848;DHT22;5983;49.966;8.052;2023-12-22T06:14:34;6.80;99.90
11848;DHT22;5983;49.966;8.052;2023-12-22T06:17:01;6.80;99.90
11848;DHT22;5983;49.966;8.052;2023-12-22T06:19:28;6.80;99.90
11848;DHT22;5983;49.966;8.052;2023-12-22T06:21:57;6.80;99.90
11848;DHT22;5983;49.966;8.052;2023-12-22T06:24:25;6.80;99.90
11848;DHT22;5983;49.966;8.052;2023-12-22T06:26:52;6.80;99.90
11848;DHT22;5983;49.966;8.052;2023-12-22T06:29:18;6.70;99.90
11848;DHT22;5983;49.966;8.052;2023-12-22T06:31:45;6.70;99.90
11848;DHT22;5983;49.966;8.052;2023-12-22T06:34:15;6.70;99.90
11848;DHT22;5983;49.966;8.052;2023-12-22T06:36:42;6.60;99.90
11848;DHT22;5983;49.966;8.052;2023-12-22T06:39:11;6.70;99.90
11848;DHT22;5983;49.966;8.052;2023-12-22T06:41:37;6.70;99.90
11848;DHT22;5983;49.966;8.052;2023-12-22T06:44:04;6.70;99.90
11848;DHT22;5983;49.966;8.052;2023-12-22T06:46:31;6.70;99.90
11848;DHT22;5983;49.966;8.052;2023-12-22T06:48:58;6.70;99.90
11848;DHT22;5983;49.966;8.052;2023-12-22T06:51:25;6.70;99.90
11848;DHT22;5983;49.966;8.052;2023-12-22T06:53:53;6.70;99.90
11848;DHT22;5983;49.966;8.052;2023-12-22T06:56:27;6.80;99.90
11848;DHT22;5983;49.966;8.052;2023-12-22T06:58:55;6.80;99.90
11848;DHT22;5983;49.966;8.052;2023-12-22T07:01:24;6.70;99.90
11848;DHT22;5983;49.966;8.052;2023-12-22T07:03:53;6.70;99.90
11848;DHT22;5983;49.966;8.052;2023-12-22T07:06:20;6.70;99.90
11848;DHT22;5983;49.966;8.052;2023-12-22T07:11:56;6.70;99.90
11848;DHT22;5983;49.966;8.052;2023-12-22T07:14:23;6.70;99.90
11848;DHT22;5983;49.966;8.052;2023-12-22T07:16:50;6.70;99.90
11848;DHT22;5983;49.966;8.052;2023-12-22T07:19:17;6.70;99.90
11848;DHT22;5983;49.966;8.052;2023-12-22T07:21:44;6.70;99.90
11848;DHT22;5983;49.966;8.052;2023-12-22T07:24:11;6.80;99.90
11848;DHT22;5983;49.966;8.052;2023-12-22T07:26:37;6.80;99.90
11848;DHT22;5983;49.966;8.052;2023-12-22T07:29:06;6.90;99.90
11848;DHT22;5983;49.966;8.052;2023-12-22T07:31:33;6.90;99.90
11848;DHT22;5983;49.966;8.052;2023-12-22T07:33:59;7.00;99.90
11848;DHT22;5983;49.966;8.052;2023-12-22T07:36:26;7.00;99.90
11848;DHT22;5983;49.966;8.052;2023-12-22T07:38:53;7.10;99.90
11848;DHT22;5983;49.966;8.052;2023-12-22T07:41:22;7.10;99.90
11848;DHT22;5983;49.966;8.052;2023-12-22T07:43:49;7.10;99.90
11848;DHT22;5983;49.966;8.052;2023-12-22T07:46:17;7.10;99.90
11848;DHT22;5983;49.966;8.052;2023-12-22T07:48:44;7.10;99.90
11848;DHT22;5983;49.966;8.052;2023-12-22T07:51:11;7.20;99.90
11848;DHT22;5983;49.966;8.052;2023-12-22T07:53:38;7.20;99.90
11848;DHT22;5983;49.966;8.052;2023-12-22T07:56:06;7.20;99.90
11848;DHT22;5983;49.966;8.052;2023-12-22T07:58:33;7.30;99.90
11848;DHT22;5983;49.966;8.052;2023-12-22T08:01:00;7.30;99.90
11848;DHT22;5983;49.966;8.052;2023-12-22T08:03:28;7.40;99.90
11848;DHT22;5983;49.966;8.052;2023-12-22T08:05:55;7.50;99.90
11848;DHT22;5983;49.966;8.052;2023-12-22T08:08:22;7.50;99.90
11848;DHT22;5983;49.966;8.052;2023-12-22T08:10:48;7.60;99.90
11848;DHT22;5983;49.966;8.052;2023-12-22T08:13:15;7.60;99.90
11848;DHT22;5983;49.966;8.052;2023-12-22T08:15:43;7.60;99.90
11848;DHT22;5983;49.966;8.052;2023-12-22T08:18:10;7.60;99.90
11848;DHT22;5983;49.966;8.052;2023-12-22T08:20:38;7.60;99.90
11848;DHT22;5983;49.966;8.052;2023-12-22T08:23:05;7.60;99.90
11848;DHT22;5983;49.966;8.052;2023-12-22T08:25:31;7.60;99.90
11848;DHT22;5983;49.966;8.052;2023-12-22T08:28:02;7.60;99.90
11848;DHT22;5983;49.966;8.052;2023-12-22T08:30:30;7.60;99.90
11848;DHT22;5983;49.966;8.052;2023-12-22T08:32:56;7.60;99.90
11848;DHT22;5983;49.966;8.052;2023-12-22T08:35:24;7.60;99.90
11848;DHT22;5983;49.966;8.052;2023-12-22T08:37:58;7.60;99.90
11848;DHT22;5983;49.966;8.052;2023-12-22T08:40:25;7.70;99.90
11848;DHT22;5983;49.966;8.052;2023-12-22T08:42:52;7.70;99.90
11848;DHT22;5983;49.966;8.052;2023-12-22T08:45:25;7.70;99.90
11848;DHT22;5983;49.966;8.052;2023-12-22T08:47:54;7.70;99.90
11848;DHT22;5983;49.966;8.052;2023-12-22T08:50:21;7.70;99.90
11848;DHT22;5983;49.966;8.052;2023-12-22T08:52:48;7.80;99.90
11848;DHT22;5983;49.966;8.052;2023-12-22T08:55:16;7.80;99.90
11848;DHT22;5983;49.966;8.052;2023-12-22T08:57:43;7.90;99.90
11848;DHT22;5983;49.966;8.052;2023-12-22T09:00:11;7.90;99.90
11848;DHT22;5983;49.966;8.052;2023-12-22T09:02:38;7.90;99.90
11848;DHT22;5983;49.966;8.052;2023-12-22T09:05:05;7.90;99.90
11848;DHT22;5983;49.966;8.052;2023-12-22T09:07:32;7.90;99.90
11848;DHT22;5983;49.966;8.052;2023-12-22T09:09:59;7.90;99.90
11848;DHT22;5983;49.966;8.052;2023-12-22T09:12:27;8.00;99.90
11848;DHT22;5983;49.966;8.052;2023-12-22T09:14:54;8.00;99.90
11848;DHT22;5983;49.966;8.052;2023-12-22T09:17:21;8.00;99.90
11848;DHT22;5983;49.966;8.052;2023-12-22T09:19:47;8.00;99.90
11848;DHT22;5983;49.966;8.052;2023-12-22T09:22:14;8.00;99.90
11848;DHT22;5983;49.966;8.052;2023-12-22T09:24:42;8.10;99.90
11848;DHT22;5983;49.966;8.052;2023-12-22T09:27:09;8.10;99.90
11848;DHT22;5983;49.966;8.052;2023-12-22T09:29:37;8.10;99.90
11848;DHT22;5983;49.966;8.052;2023-12-22T09:32:04;8.20;99.90
11848;DHT22;5983;49.966;8.052;2023-12-22T09:34:31;8.20;99.90
11848;DHT22;5983;49.966;8.052;2023-12-22T09:36:58;8.20;99.90
11848;DHT22;5983;49.966;8.052;2023-12-22T09:39:24;8.30;99.90
11848;DHT22;5983;49.966;8.052;2023-12-22T09:41:54;8.30;99.90
11848;DHT22;5983;49.966;8.052;2023-12-22T09:44:21;8.30;99.90
11848;DHT22;5983;49.966;8.052;2023-12-22T09:46:49;8.30;99.90
11848;DHT22;5983;49.966;8.052;2023-12-22T09:49:17;8.40;99.90
11848;DHT22;5983;49.966;8.052;2023-12-22T09:51:45;8.50;99.90
11848;DHT22;5983;49.966;8.052;2023-12-22T09:54:13;8.50;99.90
11848;DHT22;5983;49.966;8.052;2023-12-22T09:56:40;8.60;99.90
11848;DHT22;5983;49.966;8.052;2023-12-22T09:59:09;8.60;99.90
11848;DHT22;5983;49.966;8.052;2023-12-22T10:01:39;8.70;99.90
11848;DHT22;5983;49.966;8.052;2023-12-22T10:04:10;8.70;99.90
11848;DHT22;5983;49.966;8.052;2023-12-22T10:06:37;8.80;99.90
11848;DHT22;5983;49.966;8.052;2023-12-22T10:09:04;8.80;99.90
11848;DHT22;5983;49.966;8.052;2023-12-22T10:11:32;8.80;99.90
11848;DHT22;5983;49.966;8.052;2023-12-22T10:14:00;8.90;99.90
11848;DHT22;5983;49.966;8.052;2023-12-22T10:16:28;8.90;99.90
11848;DHT22;5983;49.966;8.052;2023-12-22T10:18:56;8.90;99.90
11848;DHT22;5983;49.966;8.052;2023-12-22T10:21:26;9.00;99.90
11848;DHT22;5983;49.966;8.052;2023-12-22T10:23:52;9.00;99.90
11848;DHT22;5983;49.966;8.052;2023-12-22T10:26:19;9.10;99.90
11848;DHT22;5983;49.966;8.052;2023-12-22T10:28:46;9.10;99.90
11848;DHT22;5983;49.966;8.052;2023-12-22T10:31:14;9.10;99.90
11848;DHT22;5983;49.966;8.052;2023-12-22T10:33:41;9.10;99.90
11848;DHT22;5983;49.966;8.052;2023-12-22T10:36:09;9.10;99.90
11848;DHT22;5983;49.966;8.052;2023-12-22T10:38:37;9.10;99.90
11848;DHT22;5983;49.966;8.052;2023-12-22T10:41:06;9.10;99.90
11848;DHT22;5983;49.966;8.052;2023-12-22T10:43:36;9.10;99.90
11848;DHT22;5983;49.966;8.052;2023-12-22T10:46:04;9.20;99.90
11848;DHT22;5983;49.966;8.052;2023-12-22T10:48:31;9.20;99.90
11848;DHT22;5983;49.966;8.052;2023-12-22T10:50:58;9.20;99.90
11848;DHT22;5983;49.966;8.052;2023-12-22T10:53:24;9.20;99.90
11848;DHT22;5983;49.966;8.052;2023-12-22T10:55:53;9.30;99.90
11848;DHT22;5983;49.966;8.052;2023-12-22T10:58:19;9.20;99.90
11848;DHT22;5983;49.966;8.052;2023-12-22T11:00:47;9.20;99.90
11848;DHT22;5983;49.966;8.052;2023-12-22T11:03:17;9.20;99.90
11848;DHT22;5983;49.966;8.052;2023-12-22T11:05:44;9.20;99.90
11848;DHT22;5983;49.966;8.052;2023-12-22T11:08:13;9.30;99.90
11848;DHT22;5983;49.966;8.052;2023-12-22T11:10:42;9.30;99.90
11848;DHT22;5983;49.966;8.052;2023-12-22T11:13:12;9.30;99.90
11848;DHT22;5983;49.966;8.052;2023-12-22T11:15:40;9.30;99.90
11848;DHT22;5983;49.966;8.052;2023-12-22T11:18:09;9.30;99.90
11848;DHT22;5983;49.966;8.052;2023-12-22T11:20:37;9.40;99.90
11848;DHT22;5983;49.966;8.052;2023-12-22T11:23:06;9.40;99.90
11848;DHT22;5983;49.966;8.052;2023-12-22T11:25:34;9.30;99.90
11848;DHT22;5983;49.966;8.052;2023-12-22T11:28:03;9.30;99.90
11848;DHT22;5983;49.966;8.052;2023-12-22T11:30:33;9.20;99.90
11848;DHT22;5983;49.966;8.052;2023-12-22T11:33:00;9.10;99.90
11848;DHT22;5983;49.966;8.052;2023-12-22T11:35:28;9.10;99.90
11848;DHT22;5983;49.966;8.052;2023-12-22T11:37:56;9.00;99.90
11848;DHT22;5983;49.966;8.052;2023-12-22T11:40:27;9.00;99.90
11848;DHT22;5983;49.966;8.052;2023-12-22T11:42:53;9.00;99.90
11848;DHT22;5983;49.966;8.052;2023-12-22T11:45:21;8.90;99.90
11848;DHT22;5983;49.966;8.052;2023-12-22T11:47:51;8.90;99.90
11848;DHT22;5983;49.966;8.052;2023-12-22T11:50:27;8.90;99.90
11848;DHT22;5983;49.966;8.052;2023-12-22T11:52:55;9.00;99.90
11848;DHT22;5983;49.966;8.052;2023-12-22T11:58:34;9.00;99.90
11848;DHT22;5983;49.966;8.052;2023-12-22T12:01:03;9.00;99.90
11848;DHT22;5983;49.966;8.052;2023-12-22T12:03:35;9.10;99.90
11848;DHT22;5983;49.966;8.052;2023-12-22T12:06:10;9.10;99.90
11848;DHT22;5983;49.966;8.052;2023-12-22T12:08:47;9.10;99.90
11848;DHT22;5983;49.966;8.052;2023-12-22T12:11:16;9.10;99.90
11848;DHT22;5983;49.966;8.052;2023-12-22T12:13:43;9.10;99.90
11848;DHT22;5983;49.966;8.052;2023-12-22T12:16:11;9.20;99.90
11848;DHT22;5983;49.966;8.052;2023-12-22T12:18:40;9.20;99.90
11848;DHT22;5983;49.966;8.052;2023-12-22T12:21:07;9.30;99.90
11848;DHT22;5983;49.966;8.052;2023-12-22T12:23:36;9.30;99.90
11848;DHT22;5983;49.966;8.052;2023-12-22T12:26:05;9.30;99.90
11848;DHT22;5983;49.966;8.052;2023-12-22T12:28:33;9.40;99.90
11848;DHT22;5983;49.966;8.052;2023-12-22T12:31:02;9.40;99.90
11848;DHT22;5983;49.966;8.052;2023-12-22T12:33:30;9.40;99.90
11848;DHT22;5983;49.966;8.052;2023-12-22T12:36:00;9.50;99.90
11848;DHT22;5983;49.966;8.052;2023-12-22T12:38:36;9.60;99.90
11848;DHT22;5983;49.966;8.052;2023-12-22T12:41:05;9.60;99.90
11848;DHT22;5983;49.966;8.052;2023-12-22T12:43:32;9.70;99.90
11848;DHT22;5983;49.966;8.052;2023-12-22T12:46:03;9.70;99.90
11848;DHT22;5983;49.966;8.052;2023-12-22T12:48:30;9.70;99.90
11848;DHT22;5983;49.966;8.052;2023-12-22T12:51:02;9.80;99.90
11848;DHT22;5983;49.966;8.052;2023-12-22T12:53:30;9.80;99.90
11848;DHT22;5983;49.966;8.052;2023-12-22T12:55:58;9.80;99.90
11848;DHT22;5983;49.966;8.052;2023-12-22T12:58:27;9.80;99.90
11848;DHT22;5983;49.966;8.052;2023-12-22T13:01:03;9.90;99.90
11848;DHT22;5983;49.966;8.052;2023-12-22T13:03:30;9.90;99.90
11848;DHT22;5983;49.966;8.052;2023-12-22T13:06:06;9.90;99.90
11848;DHT22;5983;49.966;8.052;2023-12-22T13:08:33;10.00;99.90
11848;DHT22;5983;49.966;8.052;2023-12-22T13:11:06;9.90;99.90
11848;DHT22;5983;49.966;8.052;2023-12-22T13:13:40;10.00;99.90
11848;DHT22;5983;49.966;8.052;2023-12-22T13:16:07;10.00;99.90
11848;DHT22;5983;49.966;8.052;2023-12-22T13:18:35;10.00;99.90
11848;DHT22;5983;49.966;8.052;2023-12-22T13:21:02;10.00;99.90
11848;DHT22;5983;49.966;8.052;2023-12-22T13:23:31;10.00;99.90
11848;DHT22;5983;49.966;8.052;2023-12-22T13:25:59;10.00;99.90
11848;DHT22;5983;49.966;8.052;2023-12-22T13:28:25;10.10;99.90
11848;DHT22;5983;49.966;8.052;2023-12-22T13:30:53;10.10;99.90
11848;DHT22;5983;49.966;8.052;2023-12-22T13:33:20;10.10;99.90
11848;DHT22;5983;49.966;8.052;2023-12-22T13:35:47;10.10;99.90
11848;DHT22;5983;49.966;8.052;2023-12-22T13:38:14;10.10;99.90
11848;DHT22;5983;49.966;8.052;2023-12-22T13:40:45;10.10;99.90
11848;DHT22;5983;49.966;8.052;2023-12-22T13:43:12;10.10;99.90
11848;DHT22;5983;49.966;8.052;2023-12-22T13:45:39;10.10;99.90
11848;DHT22;5983;49.966;8.052;2023-12-22T13:48:06;10.10;99.90
11848;DHT22;5983;49.966;8.052;2023-12-22T13:50:33;10.10;99.90
11848;DHT22;5983;49.966;8.052;2023-12-22T13:53:07;10.10;99.90
11848;DHT22;5983;49.966;8.052;2023-12-22T13:55:34;10.10;99.90
11848;DHT22;5983;49.966;8.052;2023-12-22T13:58:04;10.10;99.90
11848;DHT22;5983;49.966;8.052;2023-12-22T14:00:31;10.10;99.90
11848;DHT22;5983;49.966;8.052;2023-12-22T14:02:57;10.10;99.90
11848;DHT22;5983;49.966;8.052;2023-12-22T14:05:24;10.10;99.90
11848;DHT22;5983;49.966;8.052;2023-12-22T14:07:53;10.20;99.90
11848;DHT22;5983;49.966;8.052;2023-12-22T14:10:20;10.20;99.90
11848;DHT22;5983;49.966;8.052;2023-12-22T14:12:47;10.20;99.90
11848;DHT22;5983;49.966;8.052;2023-12-22T14:15:15;10.20;99.90
11848;DHT22;5983;49.966;8.052;2023-12-22T14:17:42;10.20;99.90
11848;DHT22;5983;49.966;8.052;2023-12-22T14:20:09;10.20;99.90
11848;DHT22;5983;49.966;8.052;2023-12-22T14:22:36;10.20;99.90
11848;DHT22;5983;49.966;8.052;2023-12-22T14:25:04;10.20;99.90
11848;DHT22;5983;49.966;8.052;2023-12-22T14:27:31;10.10;99.90
11848;DHT22;5983;49.966;8.052;2023-12-22T14:29:58;10.10;99.90
11848;DHT22;5983;49.966;8.052;2023-12-22T14:32:26;10.20;99.90
11848;DHT22;5983;49.966;8.052;2023-12-22T14:34:55;10.10;99.90
11848;DHT22;5983;49.966;8.052;2023-12-22T14:37:22;10.20;99.90
11848;DHT22;5983;49.966;8.052;2023-12-22T14:39:49;10.20;99.90
11848;DHT22;5983;49.966;8.052;2023-12-22T14:42:16;10.20;99.90
11848;DHT22;5983;49.966;8.052;2023-12-22T14:44:42;10.20;99.90
11848;DHT22;5983;49.966;8.052;2023-12-22T14:47:09;10.20;99.90
11848;DHT22;5983;49.966;8.052;2023-12-22T14:49:37;10.10;99.90
11848;DHT22;5983;49.966;8.052;2023-12-22T14:52:04;10.20;99.90
11848;DHT22;5983;49.966;8.052;2023-12-22T14:54:31;10.20;99.90
11848;DHT22;5983;49.966;8.052;2023-12-22T14:56:58;10.20;99.90
11848;DHT22;5983;49.966;8.052;2023-12-22T14:59:25;10.20;99.90
11848;DHT22;5983;49.966;8.052;2023-12-22T15:01:52;10.20;99.90
11848;DHT22;5983;49.966;8.052;2023-12-22T15:04:19;10.20;99.90
11848;DHT22;5983;49.966;8.052;2023-12-22T15:06:47;10.20;99.90
11848;DHT22;5983;49.966;8.052;2023-12-22T15:09:15;10.10;99.90
11848;DHT22;5983;49.966;8.052;2023-12-22T15:11:42;10.20;99.90
11848;DHT22;5983;49.966;8.052;2023-12-22T15:14:09;10.20;99.90
11848;DHT22;5983;49.966;8.052;2023-12-22T15:16:38;10.10;99.90
11848;DHT22;5983;49.966;8.052;2023-12-22T15:19:06;10.20;99.90
11848;DHT22;5983;49.966;8.052;2023-12-22T15:21:33;10.10;99.90
11848;DHT22;5983;49.966;8.052;2023-12-22T15:24:01;10.10;99.90
11848;DHT22;5983;49.966;8.052;2023-12-22T15:26:28;10.10;99.90
11848;DHT22;5983;49.966;8.052;2023-12-22T15:28:54;10.10;99.90
11848;DHT22;5983;49.966;8.052;2023-12-22T15:31:21;10.00;99.90
11848;DHT22;5983;49.966;8.052;2023-12-22T15:33:49;10.00;99.90
11848;DHT22;5983;49.966;8.052;2023-12-22T15:36:16;10.00;99.90
11848;DHT22;5983;49.966;8.052;2023-12-22T15:38:44;10.00;99.90
11848;DHT22;5983;49.966;8.052;2023-12-22T15:41:12;10.00;99.90
11848;DHT22;5983;49.966;8.052;2023-12-22T15:43:39;10.00;99.90
11848;DHT22;5983;49.966;8.052;2023-12-22T15:46:05;10.00;99.90
11848;DHT22;5983;49.966;8.052;2023-12-22T15:48:33;10.00;99.90
11848;DHT22;5983;49.966;8.052;2023-12-22T15:51:04;10.10;99.90
11848;DHT22;5983;49.966;8.052;2023-12-22T15:53:31;10.10;99.90
11848;DHT22;5983;49.966;8.052;2023-12-22T15:55:58;10.10;99.90
11848;DHT22;5983;49.966;8.052;2023-12-22T15:58:31;10.10;99.90
11848;DHT22;5983;49.966;8.052;2023-12-22T16:00:58;10.10;99.90
11848;DHT22;5983;49.966;8.052;2023-12-22T16:03:24;10.10;99.90
11848;DHT22;5983;49.966;8.052;2023-12-22T16:05:51;10.10;99.90
11848;DHT22;5983;49.966;8.052;2023-12-22T16:08:18;10.10;99.90
11848;DHT22;5983;49.966;8.052;2023-12-22T16:10:45;10.10;99.90